createdAt,value
2017-10-31T00:01:57.592Z,6.07
2017-10-31T00:04:25.997Z,6.40
2017-10-31T00:06:54.410Z,6.23
2017-10-31T00:09:22.854Z,5.60
2017-10-31T00:11:51.256Z,6.70
2017-10-31T00:14:19.701Z,5.27
2017-10-31T00:16:48.149Z,5.97
2017-10-31T00:19:16.201Z,5.73
2017-10-31T00:21:44.601Z,5.70
2017-10-31T00:24:12.687Z,6.00
2017-10-31T00:26:41.101Z,5.97
2017-10-31T00:29:09.505Z,5.77
2017-10-31T00:31:38.683Z,5.77
2017-10-31T00:34:07.087Z,6.13
2017-10-31T00:36:36.252Z,6.00
2017-10-31T00:39:03.991Z,6.33
2017-10-31T00:41:32.395Z,6.63
2017-10-31T00:44:00.811Z,5.43
2017-10-31T00:46:29.297Z,6.67
2017-10-31T00:48:57.702Z,6.87
2017-10-31T00:51:26.110Z,6.47
2017-10-31T00:53:54.531Z,5.70
2017-10-31T00:56:22.938Z,5.67
2017-10-31T00:58:51.334Z,6.57
2017-10-31T01:01:19.753Z,5.80
2017-10-31T01:03:48.930Z,7.47
2017-10-31T01:06:17.338Z,6.90
2017-10-31T01:08:45.780Z,6.77
2017-10-31T01:11:14.214Z,6.80
2017-10-31T01:13:42.622Z,6.77
2017-10-31T01:16:11.096Z,5.90
2017-10-31T01:18:39.511Z,7.33
2017-10-31T01:21:07.917Z,6.60
2017-10-31T01:23:36.151Z,7.40
2017-10-31T01:26:04.559Z,6.50
2017-10-31T01:28:33.725Z,6.80
2017-10-31T01:31:02.255Z,6.03
2017-10-31T01:33:30.663Z,7.53
2017-10-31T01:35:59.058Z,6.80
2017-10-31T01:38:27.479Z,7.47
2017-10-31T01:40:55.883Z,6.23
2017-10-31T01:43:24.291Z,5.93
2017-10-31T01:45:52.715Z,7.03
2017-10-31T01:48:21.122Z,7.57
2017-10-31T01:50:49.527Z,7.20
2017-10-31T01:53:18.195Z,7.07
2017-10-31T01:55:46.606Z,6.03
2017-10-31T01:58:14.659Z,7.07
2017-10-31T02:00:42.390Z,6.53
2017-10-31T02:03:10.450Z,7.10
2017-10-31T02:05:38.859Z,6.67
2017-10-31T02:08:07.106Z,6.07
2017-10-31T02:10:35.517Z,7.33
2017-10-31T02:13:03.911Z,6.97
2017-10-31T02:15:32.336Z,7.93
2017-10-31T02:18:00.742Z,6.20
2017-10-31T02:20:29.071Z,6.57
2017-10-31T02:22:57.919Z,7.13
2017-10-31T02:25:26.318Z,6.77
2017-10-31T02:27:54.378Z,7.30
2017-10-31T02:30:22.117Z,7.77
2017-10-31T02:32:49.835Z,6.50
2017-10-31T02:35:18.309Z,7.30
2017-10-31T02:37:46.816Z,7.40
2017-10-31T02:40:14.527Z,6.73
2017-10-31T02:42:43.345Z,7.03
2017-10-31T02:45:11.840Z,7.20
2017-10-31T02:47:39.902Z,7.37
2017-10-31T02:50:07.866Z,8.27
2017-10-31T02:52:35.592Z,7.03
2017-10-31T02:55:03.646Z,6.83
2017-10-31T02:57:31.461Z,7.40
2017-10-31T02:59:59.218Z,7.27
2017-10-31T03:02:28.051Z,7.30
2017-10-31T03:04:55.762Z,7.10
2017-10-31T03:07:24.263Z,6.90
2017-10-31T03:09:52.004Z,7.90
2017-10-31T03:12:19.953Z,6.80
2017-10-31T03:14:47.669Z,7.97
2017-10-31T03:17:15.376Z,7.23
2017-10-31T03:19:43.087Z,6.20
2017-10-31T03:22:10.817Z,7.30
2017-10-31T03:24:39.298Z,5.90
2017-10-31T03:27:07.777Z,7.57
2017-10-31T03:29:36.281Z,5.90
2017-10-31T03:32:04.344Z,7.00
2017-10-31T03:34:32.815Z,7.83
2017-10-31T03:37:02.294Z,7.47
2017-10-31T03:39:30.026Z,6.93
2017-10-31T03:41:57.737Z,7.23
2017-10-31T03:44:26.582Z,7.03
2017-10-31T03:46:54.294Z,6.40
2017-10-31T03:49:22.799Z,6.70
2017-10-31T03:51:50.884Z,6.37
2017-10-31T03:54:18.590Z,6.17
2017-10-31T03:56:46.309Z,6.73
2017-10-31T03:59:14.387Z,6.33
2017-10-31T04:01:42.527Z,6.50
2017-10-31T04:04:10.247Z,6.97
2017-10-31T04:06:38.362Z,6.10
2017-10-31T04:09:06.087Z,7.80
2017-10-31T04:11:33.808Z,7.23
2017-10-31T04:14:01.550Z,7.13
2017-10-31T04:16:29.284Z,6.60
2017-10-31T04:18:58.462Z,7.60
2017-10-31T04:21:26.883Z,7.23
2017-10-31T04:23:55.286Z,7.80
2017-10-31T04:26:23.693Z,7.07
2017-10-31T04:28:52.117Z,7.50
2017-10-31T04:31:22.257Z,8.57
2017-10-31T04:33:50.317Z,7.30
2017-10-31T04:36:19.057Z,7.43
2017-10-31T04:38:47.474Z,8.33
2017-10-31T04:41:15.875Z,7.47
2017-10-31T04:43:44.365Z,7.40
2017-10-31T04:46:12.772Z,9.10
2017-10-31T04:48:41.947Z,7.97
2017-10-31T04:51:10.371Z,8.87
2017-10-31T04:53:39.540Z,8.17
2017-10-31T04:56:07.258Z,7.50
2017-10-31T04:58:35.332Z,8.10
2017-10-31T05:01:03.390Z,7.27
2017-10-31T05:03:31.797Z,7.80
2017-10-31T05:06:00.218Z,8.20
2017-10-31T05:08:29.394Z,8.07
2017-10-31T05:10:57.798Z,7.60
2017-10-31T05:13:26.998Z,6.30
2017-10-31T05:15:56.226Z,7.73
2017-10-31T05:18:24.638Z,7.83
2017-10-31T05:20:53.053Z,6.47
2017-10-31T05:23:22.225Z,7.97
2017-10-31T05:25:51.385Z,6.80
2017-10-31T05:28:19.819Z,7.93
2017-10-31T05:30:48.997Z,8.30
2017-10-31T05:33:17.405Z,7.13
2017-10-31T05:35:46.594Z,6.77
2017-10-31T05:38:15.777Z,8.07
2017-10-31T05:40:44.185Z,8.63
2017-10-31T05:43:12.609Z,7.63
2017-10-31T05:45:41.013Z,7.33
2017-10-31T05:48:09.413Z,7.20
2017-10-31T05:50:38.598Z,8.20
2017-10-31T05:53:07.770Z,6.90
2017-10-31T05:55:36.183Z,6.33
2017-10-31T05:58:05.037Z,6.10
2017-10-31T06:00:34.241Z,6.70
2017-10-31T06:03:02.638Z,6.27
2017-10-31T06:05:31.831Z,6.57
2017-10-31T06:08:00.997Z,6.77
2017-10-31T06:10:29.407Z,7.63
2017-10-31T06:12:58.595Z,7.00
2017-10-31T06:15:26.994Z,7.07
2017-10-31T06:17:56.159Z,6.87
2017-10-31T06:20:24.624Z,6.70
2017-10-31T06:22:58.645Z,6.77
2017-10-31T06:25:32.557Z,5.63
2017-10-31T06:28:07.273Z,7.43
2017-10-31T06:30:54.349Z,7.40
2017-10-31T06:33:22.760Z,7.17
2017-10-31T06:35:51.161Z,7.10
2017-10-31T06:38:19.236Z,7.07
2017-10-31T06:40:48.423Z,6.33
2017-10-31T06:43:16.837Z,7.33
2017-10-31T06:45:45.417Z,7.30
2017-10-31T06:48:13.820Z,7.43
2017-10-31T06:50:41.880Z,7.00
2017-10-31T06:53:10.301Z,7.37
2017-10-31T06:55:38.365Z,6.63
2017-10-31T06:58:06.766Z,8.30
2017-10-31T07:00:35.195Z,7.60
2017-10-31T07:03:03.612Z,7.73
2017-10-31T07:05:32.026Z,6.27
2017-10-31T07:08:01.218Z,7.03
2017-10-31T07:10:30.400Z,7.13
2017-10-31T07:12:59.582Z,7.27
2017-10-31T07:15:28.002Z,6.60
2017-10-31T07:17:56.410Z,6.27
2017-10-31T07:20:24.817Z,7.13
2017-10-31T07:22:53.242Z,7.07
2017-10-31T07:25:21.645Z,7.87
2017-10-31T07:27:50.057Z,5.87
2017-10-31T07:30:18.474Z,6.70
2017-10-31T07:32:46.890Z,6.10
2017-10-31T07:35:15.289Z,7.23
2017-10-31T07:37:43.707Z,7.03
2017-10-31T07:40:12.101Z,5.97
2017-10-31T07:42:40.505Z,4.60
2017-10-31T07:45:08.923Z,4.93
2017-10-31T07:47:38.093Z,5.57
2017-10-31T07:50:06.310Z,5.57
2017-10-31T07:52:34.730Z,4.97
2017-10-31T07:55:03.141Z,5.33
2017-10-31T07:57:31.546Z,5.60
2017-10-31T07:59:59.968Z,6.10
2017-10-31T08:02:28.375Z,5.80
2017-10-31T08:04:56.778Z,5.37
2017-10-31T08:07:25.216Z,6.50
2017-10-31T08:09:53.640Z,6.33
2017-10-31T08:12:22.046Z,6.37
2017-10-31T08:14:50.459Z,5.23
2017-10-31T08:17:18.870Z,5.87
2017-10-31T08:19:47.293Z,5.53
2017-10-31T08:22:15.715Z,6.70
2017-10-31T08:24:44.905Z,6.37
2017-10-31T08:27:14.077Z,6.30
2017-10-31T08:29:42.507Z,7.17
2017-10-31T08:32:10.950Z,8.00
2017-10-31T08:34:39.356Z,7.57
2017-10-31T08:37:07.774Z,7.33
2017-10-31T08:39:36.275Z,6.40
2017-10-31T08:42:04.334Z,8.10
2017-10-31T08:44:32.063Z,6.93
2017-10-31T08:47:00.126Z,8.10
2017-10-31T08:49:28.533Z,8.37
2017-10-31T08:51:56.994Z,8.60
2017-10-31T08:54:25.404Z,8.33
2017-10-31T08:56:53.822Z,7.23
2017-10-31T08:59:23.037Z,8.50
2017-10-31T09:01:51.446Z,7.30
2017-10-31T09:04:19.858Z,7.63
2017-10-31T09:06:48.285Z,7.73
2017-10-31T09:09:16.703Z,7.87
2017-10-31T09:11:45.878Z,7.17
2017-10-31T09:14:14.301Z,7.60
2017-10-31T09:16:43.478Z,7.17
2017-10-31T09:19:11.894Z,7.73
2017-10-31T09:21:40.323Z,7.70
2017-10-31T09:24:08.728Z,7.30
2017-10-31T09:26:37.143Z,7.60
2017-10-31T09:29:05.935Z,7.00
2017-10-31T09:31:34.346Z,7.33
2017-10-31T09:34:02.763Z,8.10
2017-10-31T09:36:31.951Z,7.50
2017-10-31T09:39:01.124Z,7.10
2017-10-31T09:41:29.535Z,7.70
2017-10-31T09:43:58.720Z,8.40
2017-10-31T09:46:27.118Z,6.80
2017-10-31T09:48:56.282Z,6.80
2017-10-31T09:51:24.707Z,7.37
2017-10-31T09:53:53.123Z,6.97
2017-10-31T09:56:21.547Z,7.60
2017-10-31T09:58:50.735Z,6.90
2017-10-31T10:01:19.902Z,7.70
2017-10-31T10:03:48.316Z,6.40
2017-10-31T10:06:16.737Z,6.10
2017-10-31T10:08:45.160Z,5.90
2017-10-31T10:11:14.349Z,5.33
2017-10-31T10:13:42.765Z,5.60
2017-10-31T10:16:11.178Z,4.43
2017-10-31T10:18:39.592Z,4.83
2017-10-31T10:21:08.790Z,5.27
2017-10-31T10:23:37.966Z,5.03
2017-10-31T10:26:06.363Z,6.37
2017-10-31T10:28:35.557Z,4.20
2017-10-31T10:31:03.963Z,4.73
2017-10-31T10:33:32.371Z,4.93
2017-10-31T10:36:00.795Z,5.03
2017-10-31T10:38:30.601Z,5.30
2017-10-31T10:40:59.009Z,4.90
2017-10-31T10:43:27.485Z,5.07
2017-10-31T10:45:55.954Z,4.20
2017-10-31T10:48:23.711Z,4.50
2017-10-31T10:50:52.898Z,4.63
2017-10-31T10:53:21.315Z,4.83
2017-10-31T10:55:49.718Z,4.20
2017-10-31T10:58:17.791Z,5.33
2017-10-31T11:00:45.510Z,3.90
2017-10-31T11:03:17.383Z,4.33
2017-10-31T11:05:45.564Z,4.73
2017-10-31T11:08:13.630Z,4.70
2017-10-31T11:10:42.034Z,4.63
2017-10-31T11:13:10.450Z,4.40
2017-10-31T11:15:39.618Z,4.60
2017-10-31T11:18:08.029Z,5.27
2017-10-31T11:20:36.872Z,4.80
2017-10-31T11:23:05.276Z,5.10
2017-10-31T11:25:35.186Z,5.33
2017-10-31T11:28:03.615Z,5.47
2017-10-31T11:30:32.027Z,6.03
2017-10-31T11:33:00.435Z,6.00
2017-10-31T11:35:29.015Z,4.87
2017-10-31T11:37:57.456Z,4.70
2017-10-31T11:40:25.865Z,3.67
2017-10-31T11:42:54.292Z,4.17
2017-10-31T11:45:22.690Z,3.83
2017-10-31T11:47:51.097Z,3.57
2017-10-31T11:50:19.518Z,3.13
2017-10-31T11:52:47.933Z,3.70
2017-10-31T11:55:17.743Z,3.57
2017-10-31T11:57:46.158Z,4.90
2017-10-31T12:00:14.566Z,3.60
2017-10-31T12:02:42.963Z,3.40
2017-10-31T12:05:11.642Z,3.83
2017-10-31T12:07:40.962Z,3.90
2017-10-31T12:10:09.371Z,3.17
2017-10-31T12:12:38.572Z,4.67
2017-10-31T12:15:06.980Z,4.90
2017-10-31T12:17:38.219Z,4.30
2017-10-31T12:20:07.406Z,5.10
2017-10-31T12:22:36.570Z,3.73
2017-10-31T12:25:04.991Z,3.70
2017-10-31T12:27:34.154Z,3.73
2017-10-31T12:30:02.567Z,3.80
2017-10-31T12:32:31.759Z,4.60
2017-10-31T12:35:00.923Z,4.63
2017-10-31T12:37:29.326Z,4.83
2017-10-31T12:39:58.172Z,4.90
2017-10-31T12:42:26.982Z,4.73
2017-10-31T12:44:55.576Z,5.47
2017-10-31T12:47:23.651Z,5.10
2017-10-31T12:49:52.838Z,5.40
2017-10-31T12:52:21.252Z,5.27
2017-10-31T12:54:48.984Z,4.00
2017-10-31T12:57:17.813Z,3.70
2017-10-31T12:59:46.215Z,3.50
2017-10-31T13:02:15.128Z,3.60
2017-10-31T13:04:43.558Z,3.73
2017-10-31T13:07:11.091Z,2.50
2017-10-31T13:09:40.276Z,3.00
2017-10-31T13:12:09.446Z,3.27
2017-10-31T13:14:37.505Z,2.83
2017-10-31T13:17:05.946Z,3.23
2017-10-31T13:19:34.354Z,3.30
2017-10-31T13:22:02.755Z,2.97
2017-10-31T13:24:31.946Z,2.83
2017-10-31T13:27:00.398Z,2.20
2017-10-31T13:29:29.496Z,2.60
2017-10-31T13:31:58.446Z,3.03
2017-10-31T13:34:27.979Z,2.53
2017-10-31T13:36:56.879Z,2.60
2017-10-31T13:39:25.871Z,3.20
2017-10-31T13:41:54.865Z,2.13
2017-10-31T13:44:23.640Z,2.93
2017-10-31T13:46:52.439Z,3.17
2017-10-31T13:49:21.550Z,2.83
2017-10-31T13:51:50.521Z,2.97
2017-10-31T13:54:19.015Z,3.93
2017-10-31T13:56:47.424Z,3.23
2017-10-31T13:59:15.850Z,3.00
2017-10-31T14:01:44.540Z,3.90
2017-10-31T14:04:12.994Z,3.87
2017-10-31T14:06:41.926Z,3.37
2017-10-31T14:09:10.429Z,2.80
2017-10-31T14:11:39.387Z,3.33
2017-10-31T14:14:07.798Z,3.60
2017-10-31T14:16:38.885Z,3.30
2017-10-31T14:19:07.286Z,2.93
2017-10-31T14:21:35.694Z,2.57
2017-10-31T14:24:04.360Z,3.10
2017-10-31T14:26:32.765Z,3.23
2017-10-31T14:29:01.177Z,3.00
2017-10-31T14:31:30.393Z,3.63
2017-10-31T14:33:58.807Z,3.20
2017-10-31T14:36:27.214Z,3.80
2017-10-31T14:38:56.069Z,3.60
2017-10-31T14:41:24.470Z,3.23
2017-10-31T14:43:52.867Z,3.30
2017-10-31T14:46:22.050Z,3.67
2017-10-31T14:48:50.474Z,3.33
2017-10-31T14:51:18.869Z,2.93
2017-10-31T14:53:47.281Z,3.50
2017-10-31T14:56:16.447Z,3.67
2017-10-31T14:58:44.841Z,4.00
2017-10-31T15:01:13.267Z,3.20
2017-10-31T15:03:41.673Z,3.40
2017-10-31T15:06:10.080Z,2.17
2017-10-31T15:08:38.775Z,2.67
2017-10-31T15:11:07.180Z,2.67
2017-10-31T15:13:36.350Z,3.63
2017-10-31T15:16:04.852Z,3.50
2017-10-31T15:18:34.027Z,3.57
2017-10-31T15:21:02.422Z,4.00
2017-10-31T15:23:31.722Z,4.10
2017-10-31T15:26:00.890Z,3.63
2017-10-31T15:28:28.950Z,3.70
2017-10-31T15:30:57.585Z,4.13
2017-10-31T15:33:25.981Z,4.17
2017-10-31T15:35:54.398Z,3.50
2017-10-31T15:38:23.044Z,4.13
2017-10-31T15:40:51.458Z,4.47
2017-10-31T15:43:19.881Z,4.67
2017-10-31T15:45:48.585Z,3.83
2017-10-31T15:48:16.991Z,4.10
2017-10-31T15:50:45.386Z,3.80
2017-10-31T15:53:13.816Z,3.90
2017-10-31T15:55:42.209Z,4.20
2017-10-31T15:58:10.625Z,4.17
2017-10-31T16:00:39.053Z,4.40
2017-10-31T16:03:07.447Z,4.47
2017-10-31T16:05:35.861Z,4.30
2017-10-31T16:08:04.304Z,4.03
2017-10-31T16:10:32.707Z,3.97
2017-10-31T16:13:01.129Z,4.53
2017-10-31T16:15:29.562Z,3.53
2017-10-31T16:17:57.961Z,4.10
2017-10-31T16:20:26.378Z,4.60
2017-10-31T16:22:54.797Z,4.33
2017-10-31T16:25:23.218Z,4.10
2017-10-31T16:27:51.641Z,4.20
2017-10-31T16:30:20.069Z,4.10
2017-10-31T16:32:49.392Z,4.33
2017-10-31T16:35:17.808Z,4.30
2017-10-31T16:37:46.241Z,4.30
2017-10-31T16:40:14.642Z,4.20
2017-10-31T16:42:42.695Z,5.20
2017-10-31T16:45:11.125Z,4.30
2017-10-31T16:47:39.534Z,5.00
2017-10-31T16:50:08.721Z,5.37
2017-10-31T16:52:37.919Z,5.23
2017-10-31T16:55:07.093Z,5.90
2017-10-31T16:57:35.303Z,6.47
2017-10-31T17:00:03.393Z,7.50
2017-10-31T17:02:31.818Z,6.47
2017-10-31T17:05:00.225Z,7.23
2017-10-31T17:07:28.651Z,7.40
2017-10-31T17:09:57.064Z,6.53
2017-10-31T17:12:25.468Z,7.03
2017-10-31T17:14:53.902Z,6.20
2017-10-31T17:17:22.306Z,5.70
2017-10-31T17:19:51.482Z,6.37
2017-10-31T17:22:20.026Z,6.10
2017-10-31T17:24:48.527Z,5.53
2017-10-31T17:27:16.929Z,6.70
2017-10-31T17:29:45.361Z,6.40
2017-10-31T17:32:13.765Z,6.83
2017-10-31T17:34:42.172Z,6.40
2017-10-31T17:37:10.595Z,6.30
2017-10-31T17:39:38.999Z,6.40
2017-10-31T17:42:07.413Z,7.40
2017-10-31T17:44:36.601Z,6.47
2017-10-31T17:47:05.007Z,7.03
2017-10-31T17:49:33.415Z,7.10
2017-10-31T17:52:02.834Z,6.07
2017-10-31T17:54:31.251Z,7.07
2017-10-31T17:57:00.422Z,7.47
2017-10-31T17:59:28.840Z,8.23
2017-10-31T18:01:57.066Z,7.67
2017-10-31T18:04:25.475Z,8.13
2017-10-31T18:06:54.670Z,8.00
2017-10-31T18:09:23.843Z,8.90
2017-10-31T18:11:52.256Z,7.93
2017-10-31T18:14:21.450Z,8.37
2017-10-31T18:16:50.625Z,7.20
2017-10-31T18:19:19.035Z,8.90
2017-10-31T18:21:48.234Z,9.70
2017-10-31T18:24:16.637Z,9.00
2017-10-31T18:26:45.046Z,9.00
2017-10-31T18:29:13.468Z,8.73
2017-10-31T18:31:41.895Z,8.00
2017-10-31T18:34:11.323Z,7.83
2017-10-31T18:36:39.748Z,9.07
2017-10-31T18:39:08.156Z,9.93
2017-10-31T18:41:36.631Z,11.20
2017-10-31T18:44:05.054Z,9.40
2017-10-31T18:46:34.240Z,8.03
2017-10-31T18:49:03.434Z,10.20
2017-10-31T18:51:33.104Z,9.33
2017-10-31T18:54:01.517Z,9.07
2017-10-31T18:56:29.940Z,9.20
2017-10-31T18:58:58.371Z,9.93
2017-10-31T19:01:26.774Z,9.30
2017-10-31T19:03:55.956Z,9.57
2017-10-31T19:06:25.152Z,9.50
2017-10-31T19:08:54.382Z,8.63
2017-10-31T19:11:22.805Z,7.93
2017-10-31T19:13:51.221Z,8.50
2017-10-31T19:16:20.395Z,8.87
2017-10-31T19:18:48.811Z,7.97
2017-10-31T19:21:17.266Z,9.90
2017-10-31T19:23:46.441Z,8.17
2017-10-31T19:26:14.867Z,8.23
2017-10-31T19:28:44.134Z,8.40
2017-10-31T19:31:12.576Z,9.80
2017-10-31T19:33:40.987Z,9.10
2017-10-31T19:36:09.729Z,8.60
2017-10-31T19:38:38.139Z,9.20
2017-10-31T19:41:06.556Z,10.00
2017-10-31T19:43:35.739Z,8.97
2017-10-31T19:46:04.906Z,8.20
2017-10-31T19:48:34.200Z,8.60
2017-10-31T19:51:02.618Z,7.53
2017-10-31T19:53:31.443Z,7.67
2017-10-31T19:55:59.850Z,7.80
2017-10-31T19:58:28.278Z,8.90
2017-10-31T20:00:56.688Z,7.20
2017-10-31T20:03:25.105Z,8.50
2017-10-31T20:05:53.533Z,8.37
2017-10-31T20:08:21.946Z,9.30
2017-10-31T20:10:51.870Z,8.93
2017-10-31T20:13:20.300Z,8.40
2017-10-31T20:15:48.713Z,8.63
2017-10-31T20:18:17.126Z,9.03
2017-10-31T20:20:46.318Z,7.87
2017-10-31T20:23:15.499Z,7.47
2017-10-31T20:25:43.909Z,8.70
2017-10-31T20:28:12.357Z,9.00
2017-10-31T20:30:40.761Z,9.10
2017-10-31T20:33:09.950Z,9.50
2017-10-31T20:35:39.131Z,8.30
2017-10-31T20:38:07.547Z,8.20
2017-10-31T20:40:35.952Z,9.10
2017-10-31T20:43:05.334Z,9.30
2017-10-31T20:45:33.741Z,8.83
2017-10-31T20:48:02.151Z,8.80
2017-10-31T20:50:31.343Z,7.83
2017-10-31T20:52:59.763Z,9.30
2017-10-31T20:55:28.451Z,10.27
2017-10-31T20:57:56.876Z,9.90
2017-10-31T21:00:25.286Z,9.40
2017-10-31T21:02:54.458Z,10.33
2017-10-31T21:05:24.782Z,11.47
2017-10-31T21:07:53.190Z,11.73
2017-10-31T21:10:21.602Z,11.03
2017-10-31T21:12:50.031Z,10.77
2017-10-31T21:15:19.215Z,11.43
2017-10-31T21:17:47.634Z,11.70
2017-10-31T21:20:16.246Z,14.23
2017-10-31T21:22:44.660Z,12.40
2017-10-31T21:25:13.842Z,14.97
2017-10-31T21:27:41.935Z,16.47
2017-10-31T21:30:11.164Z,16.47
2017-10-31T21:32:39.570Z,16.03
2017-10-31T21:35:08.006Z,16.20
2017-10-31T21:37:36.418Z,14.90
2017-10-31T21:40:04.835Z,14.57
2017-10-31T21:42:33.259Z,15.33
2017-10-31T21:45:01.682Z,13.40
2017-10-31T21:47:30.088Z,15.90
2017-10-31T21:49:59.271Z,15.37
2017-10-31T21:52:28.451Z,16.30
2017-10-31T21:54:57.626Z,16.37
2017-10-31T21:57:26.059Z,15.80
2017-10-31T21:59:55.231Z,14.37
2017-10-31T22:02:24.475Z,16.27
2017-10-31T22:04:52.897Z,13.90
2017-10-31T22:07:22.079Z,16.10
2017-10-31T22:09:50.483Z,15.00
2017-10-31T22:12:18.902Z,14.47
2017-10-31T22:14:47.311Z,14.87
2017-10-31T22:17:15.719Z,16.90
2017-10-31T22:19:44.146Z,14.63
2017-10-31T22:22:12.557Z,14.80
2017-10-31T22:24:40.958Z,14.30
2017-10-31T22:27:09.386Z,14.60
2017-10-31T22:29:37.803Z,16.30
2017-10-31T22:32:06.206Z,14.33
2017-10-31T22:34:35.399Z,14.87
2017-10-31T22:37:04.572Z,14.80
2017-10-31T22:39:33.873Z,13.80
2017-10-31T22:42:02.298Z,15.50
2017-10-31T22:44:30.710Z,14.90
2017-10-31T22:46:59.119Z,14.97
2017-10-31T22:49:27.546Z,16.13
2017-10-31T22:51:55.966Z,15.13
2017-10-31T22:54:24.403Z,17.77
2017-10-31T22:56:52.879Z,15.17
2017-10-31T22:59:21.697Z,16.50
2017-10-31T23:01:50.099Z,15.60
2017-10-31T23:04:18.591Z,13.60
2017-10-31T23:06:47.765Z,12.83
2017-10-31T23:09:16.167Z,11.80
2017-10-31T23:11:45.354Z,11.00
2017-10-31T23:14:13.758Z,10.60
2017-10-31T23:16:42.158Z,10.00
2017-10-31T23:19:10.589Z,10.23
2017-10-31T23:21:40.299Z,10.07
2017-10-31T23:24:08.719Z,10.27
2017-10-31T23:26:37.148Z,10.03
2017-10-31T23:29:05.559Z,10.17
2017-10-31T23:31:34.003Z,10.07
2017-10-31T23:34:02.422Z,9.60
2017-10-31T23:36:30.834Z,8.70
2017-10-31T23:38:59.234Z,9.67
2017-10-31T23:41:27.976Z,10.20
2017-10-31T23:43:56.390Z,9.93
2017-10-31T23:46:24.790Z,9.90
2017-10-31T23:48:53.218Z,9.83
2017-10-31T23:51:21.623Z,9.40
2017-10-31T23:53:50.028Z,8.87
2017-10-31T23:56:18.438Z,9.63
2017-10-31T23:58:46.841Z,10.13
